메인 페이지
METAR-TAF:

METAR-TAF

공항 :

테구시갈파, 온두라스

위도: 14-03N, 경도: 087-13W, 고도: 994m

현재 날씨관측

예보는 33분 전, 08:00시(UTC)에 발표되었습니다.
북동8kt
온도 19°C
습도 83%
기압 1019 hPa
시정 10km 이상
고도 2800ft 상공 구름 조금

METAR: MHTG 200800Z 04008KT 9999 FEW028 19/16 Q1019 A3009 NOSIG

시각: 02:33 (08:33 UTC)

예보

예보는 4 시간 8분 전, 04:25시(UTC)에 발표되었습니다.
예보 대상 시간: 20일 06시부터 21일 06시까지 (UTC)
5kt
시정 10km 이상
고도 2600ft 상공 구름 조금
전환 중
20일 16시부터 20일 18시까지 (UTC)
동북동12kt
고도 3200ft 상공 구름 조금
전환 중
21일 03시부터 21일 05시까지 (UTC)
7kt
고도 2800ft 상공 구름 보통

TAF: MHTG 200425Z 2006/2106 36005KT 9999 FEW026 TX29/2021Z TN17/2012Z BECMG 2016/2018 06012KT FEW032 BECMG 2103/2105 36007KT SCT028

4,000개 이상의 공항 관측 자료 및 예보 (METAR 및 TAF 보고).

지도상에서 검색 가능한 기상관측소가 노란 점과 빨간 점으로 표시되어 있습니다.

기상관측소 명을 보려면 표시 위로 마우스를 이동하세요.

날씨 관측과 예보를 보려면 클릭하세요.

지도 변경 : 확대하려면 엑스 표시가 있는 녹색 버튼, 축소하려면 빼기 표시가 있는 녹색 버튼, 다음 페이지의 지도를 보려면 녹색 화살표를 클릭하세요.


METAR-TAF: